Time;durP1;ratioP1;P1;durP2;ratioP2;P2;SDS_P1;SDS_P2;PMS_P1;PMS_P2;Temp;Humidity;BMP_temperature;BMP_pressure;BME280_temperature;BME280_humidity;BME280_pressure;Samples;Min_cycle;Max_cycle;Signal;HPM_P1;HPM_P2
2022/02/04 00:25:19;;;;;;;;;4.75;4.75;;;;;20.02;38.74;101197.13;5078469;27;45267;-59
2022/02/04 00:27:45;;;;;;;;;4.00;3.00;;;;;20.03;38.87;101200.63;5078683;28;45260;-59
2022/02/04 00:30:25;;;;;;;;;3.75;3.75;;;;;20.02;38.43;101201.53;5076984;28;48020;-58
2022/02/04 00:32:53;;;;;;;;;5.50;5.00;;;;;20.02;38.74;101196.28;5076940;28;45863;-62
2022/02/04 00:35:34;;;;;;;;;3.25;3.25;;;;;20.01;38.69;101187.50;5078501;27;45355;-58
2022/02/04 00:40:29;;;;;;;;;3.50;3.50;;;;;20.00;38.87;101193.72;5078349;27;45301;-58
2022/02/04 00:42:58;;;;;;;;;3.25;3.25;;;;;20.01;38.69;101189.31;5078619;27;45377;-65
2022/02/04 00:45:40;;;;;;;;;4.00;4.00;;;;;19.99;38.82;101178.88;5077196;28;45300;-68
2022/02/04 00:48:37;;;;;;;;;4.00;3.00;;;;;19.99;38.45;101181.50;5078411;27;45234;-62
2022/02/04 00:51:15;;;;;;;;;3.75;3.75;;;;;19.97;39.00;101175.44;5077787;27;45292;-58
2022/02/04 00:53:53;;;;;;;;;3.25;3.00;;;;;19.98;38.40;101182.41;5077922;27;45857;-62
2022/02/04 01:26:06;;;;;;;;;2.75;2.75;;;;;19.95;38.73;101182.56;5077011;28;45912;-58
2022/02/04 01:28:33;;;;;;;;;3.25;2.50;;;;;19.93;38.13;101185.28;5077512;27;45320;-58
2022/02/04 01:30:59;;;;;;;;;3.50;3.50;;;;;19.95;38.37;101179.94;5077521;27;45219;-58
2022/02/04 01:33:25;;;;;;;;;3.00;3.00;;;;;19.93;38.43;101181.78;5076995;27;45955;-57
2022/02/04 01:35:54;;;;;;;;;3.75;3.00;;;;;19.93;38.26;101177.38;5077141;27;46048;-58
2022/02/04 01:38:20;;;;;;;;;2.00;2.00;;;;;19.91;38.73;101173.09;5076103;28;45432;-59
2022/02/04 01:40:46;;;;;;;;;2.00;2.00;;;;;19.93;38.81;101181.78;5077657;27;45245;-61
2022/02/04 01:43:11;;;;;;;;;3.75;3.75;;;;;19.91;38.41;101180.97;5076880;27;45572;-56
2022/02/04 01:45:37;;;;;;;;;4.50;4.50;;;;;19.90;38.85;101177.50;5076952;27;45251;-58
2022/02/04 01:48:02;;;;;;;;;3.25;3.25;;;;;19.91;38.69;101187.13;5076959;27;45253;-58
2022/02/04 01:50:30;;;;;;;;;4.00;3.00;;;;;19.93;38.99;101179.13;5077069;27;45177;-58
2022/02/04 01:52:57;;;;;;;;;3.25;3.25;;;;;19.96;38.60;101173.75;5076847;27;45605;-59
2022/02/04 01:55:24;;;;;;;;;3.00;3.00;;;;;20.01;38.81;101177.00;5076757;27;45877;-58
2022/02/04 01:57:50;;;;;;;;;3.50;2.00;;;;;20.05;39.11;101175.94;5077304;27;45308;-61
2022/02/04 02:00:16;;;;;;;;;7.25;3.00;;;;;20.11;38.60;101181.84;5077179;27;45559;-60
2022/02/04 02:02:42;;;;;;;;;3.25;3.25;;;;;20.15;39.15;101178.13;5076560;27;45410;-57
2022/02/04 02:05:08;;;;;;;;;4.00;3.00;;;;;20.22;38.85;101180.38;5076566;27;45296;-62
2022/02/04 02:07:41;;;;;;;;;3.00;3.00;;;;;20.27;38.58;101180.16;5076792;27;45284;-59
2022/02/04 02:10:11;;;;;;;;;3.25;2.25;;;;;20.31;38.99;101173.81;5076895;27;45436;-59
2022/02/04 02:15:29;;;;;;;;;2.00;1.00;;;;;20.40;38.57;101175.13;5076544;27;45937;-61
2022/02/04 02:44:54;;;;;;;;;4.50;2.75;;;;;20.67;38.09;101140.44;5079870;27;45288;-65
2022/02/04 03:02:55;;;;;;;;;3.75;3.75;;;;;20.73;38.07;101148.03;5080112;27;45326;-60
2022/02/04 03:05:21;;;;;;;;;3.00;2.50;;;;;20.73;37.78;101139.28;5079604;27;46149;-65
2022/02/04 03:07:46;;;;;;;;;3.25;3.00;;;;;20.72;37.85;101140.22;5079461;27;45380;-62
2022/02/04 03:10:11;;;;;;;;;2.00;2.00;;;;;20.72;37.79;101130.53;5079553;27;45285;-59
2022/02/04 03:12:37;;;;;;;;;2.25;2.25;;;;;20.69;38.07;101128.91;5079565;27;45708;-60
2022/02/04 03:15:03;;;;;;;;;3.50;3.50;;;;;20.73;38.27;101134.03;5079142;27;45342;-69
2022/02/04 03:17:28;;;;;;;;;3.50;3.00;;;;;20.71;37.67;101131.47;5078093;28;45892;-69
2022/02/04 03:19:58;;;;;;;;;2.00;2.00;;;;;20.69;38.04;101118.38;5079656;27;45326;-63
2022/02/04 03:22:24;;;;;;;;;2.00;2.00;;;;;20.72;38.10;101116.50;5078367;27;45339;-61
2022/02/04 03:24:57;;;;;;;;;3.00;3.00;;;;;20.70;38.19;101116.59;5079130;27;46210;-57
2022/02/04 03:27:24;;;;;;;;;2.00;2.00;;;;;20.70;37.97;101112.16;5078020;27;45784;-61
2022/02/04 03:30:14;;;;;;;;;2.25;2.25;;;;;20.70;38.04;101112.16;5079214;27;45385;-59
2022/02/04 03:32:45;;;;;;;;;2.00;2.00;;;;;20.70;38.15;101112.16;5079449;27;45314;-56
2022/02/04 03:35:13;;;;;;;;;3.25;2.50;;;;;20.70;38.01;101106.06;5078980;27;46443;-60
2022/02/04 03:37:38;;;;;;;;;3.00;2.50;;;;;20.68;38.05;101110.56;5079014;27;45272;-57
2022/02/04 03:40:04;;;;;;;;;2.00;2.00;;;;;20.68;37.50;101102.66;5079203;27;45318;-58
2022/02/04 03:42:29;;;;;;;;;1.00;1.00;;;;;20.68;38.01;101114.03;5079255;28;45303;-59
2022/02/04 03:44:55;;;;;;;;;1.00;1.00;;;;;20.66;37.45;101102.75;5078975;27;45451;-63
2022/02/04 03:47:20;;;;;;;;;2.00;2.00;;;;;20.67;37.85;101109.69;5078127;27;48979;-60
2022/02/04 03:49:46;;;;;;;;;1.00;1.00;;;;;20.67;37.95;101107.06;5078835;27;45645;-60
2022/02/04 03:52:11;;;;;;;;;3.00;3.00;;;;;20.66;37.77;101108.00;5079186;27;45532;-58
2022/02/04 03:54:36;;;;;;;;;4.50;2.25;;;;;20.65;38.09;101100.16;5078696;27;46282;-59
2022/02/04 03:57:02;;;;;;;;;0.75;0.75;;;;;20.64;38.10;101099.34;5078759;27;45826;-59
2022/02/04 03:59:28;;;;;;;;;2.00;2.00;;;;;20.64;37.62;101101.97;5078793;27;45284;-59
2022/02/04 04:01:53;;;;;;;;;1.50;1.50;;;;;20.64;37.58;101109.88;5079156;28;45392;-61
2022/02/04 04:04:19;;;;;;;;;3.50;1.25;;;;;20.60;37.91;101110.09;5078510;27;45501;-57
2022/02/04 04:06:46;;;;;;;;;1.00;1.00;;;;;20.63;38.07;101109.91;5078518;27;45283;-58
2022/02/04 04:09:11;;;;;;;;;3.50;3.50;;;;;20.60;37.88;101103.03;5078636;27;45280;-59
2022/02/04 04:11:42;;;;;;;;;3.00;3.00;;;;;20.61;38.05;101107.38;5078658;27;45564;-58
2022/02/04 04:14:07;;;;;;;;;1.25;1.25;;;;;20.58;37.66;101107.53;5078295;27;45610;-61
2022/02/04 04:16:32;;;;;;;;;1.50;0.75;;;;;20.58;37.75;101107.53;5078423;27;45322;-59
2022/02/04 04:18:58;;;;;;;;;2.00;1.00;;;;;20.59;37.61;101103.97;5077415;27;45365;-61
2022/02/04 04:21:23;;;;;;;;;3.00;2.75;;;;;20.57;37.95;101099.72;5078857;27;45589;-60
2022/02/04 04:23:49;;;;;;;;;3.00;2.00;;;;;20.57;37.63;101105.81;5078244;27;45620;-58
2022/02/04 04:26:14;;;;;;;;;2.50;2.50;;;;;20.52;37.62;101092.91;5078244;27;45425;-64
2022/02/04 04:28:39;;;;;;;;;1.50;1.50;;;;;20.55;37.87;101091.91;5076773;28;45375;-57
2022/02/04 04:31:05;;;;;;;;;2.00;2.00;;;;;20.54;37.82;101101.56;5078358;28;45240;-58
2022/02/04 04:33:30;;;;;;;;;2.00;2.00;;;;;20.54;37.40;101090.19;5078049;27;46096;-65
2022/02/04 04:35:55;;;;;;;;;1.00;1.00;;;;;20.52;37.59;101092.91;5078354;27;45260;-59
2022/02/04 05:29:28;;;;;;;;;14.00;9.00;;;;;20.22;37.33;101072.47;5048065;27;45377;-63
2022/02/04 05:31:53;;;;;;;;;11.25;11.25;;;;;20.14;37.46;101071.13;5076196;27;45273;-61
2022/02/04 05:34:20;;;;;;;;;14.25;13.25;;;;;20.07;37.70;101071.47;5076278;28;45561;-63
2022/02/04 05:36:48;;;;;;;;;13.00;13.00;;;;;20.00;37.55;101064.81;5077182;27;47232;-61
2022/02/04 05:39:21;;;;;;;;;14.75;13.25;;;;;19.92;37.52;101051.16;5077097;27;46081;-65
2022/02/04 05:41:49;;;;;;;;;12.50;10.25;;;;;19.86;37.76;101062.00;5077097;27;45437;-64
2022/02/04 05:44:15;;;;;;;;;5.00;3.75;;;;;19.77;37.35;101058.88;5077374;27;45405;-66
2022/02/04 05:46:55;;;;;;;;;16.00;11.50;;;;;19.72;37.54;101060.84;5075447;27;46908;-66
2022/02/04 05:49:23;;;;;;;;;16.75;12.25;;;;;19.66;37.51;101052.41;5075415;28;45390;-65
2022/02/04 05:59:43;;;;;;;;;15.25;13.50;;;;;19.40;37.63;101052.72;5076866;27;45395;-63
2022/02/04 06:02:23;;;;;;;;;15.25;14.50;;;;;19.33;37.96;101043.44;5076783;27;45451;-66
2022/02/04 06:23:38;;;;;;;;;8.00;8.00;;;;;19.14;38.54;101052.16;5076614;28;45752;-58
2022/02/04 06:26:04;;;;;;;;;9.75;9.00;;;;;19.20;38.34;101063.31;5076734;27;45533;-58
2022/02/04 06:28:29;;;;;;;;;9.00;6.00;;;;;19.24;38.17;101063.09;5076566;27;46974;-58
2022/02/04 06:30:54;;;;;;;;;9.00;8.25;;;;;19.28;38.49;101053.28;5076396;27;45472;-58
2022/02/04 06:33:20;;;;;;;;;6.75;6.75;;;;;19.32;37.93;101054.88;5076556;27;45447;-58
2022/02/04 06:35:45;;;;;;;;;7.00;5.50;;;;;19.35;38.33;101052.06;5076555;27;45339;-58
2022/02/04 06:38:10;;;;;;;;;7.00;6.00;;;;;19.39;38.20;101058.06;5076231;27;46285;-58
2022/02/04 06:40:36;;;;;;;;;4.75;4.00;;;;;19.41;38.09;101046.56;5076299;27;45316;-58
2022/02/04 06:43:01;;;;;;;;;6.25;4.75;;;;;19.43;38.31;101047.34;5076724;27;45333;-58
2022/02/04 06:45:27;;;;;;;;;6.00;4.75;;;;;19.46;38.42;101046.31;5076549;27;45481;-57
2022/02/04 06:47:52;;;;;;;;;7.25;6.00;;;;;19.49;38.29;101042.69;5075920;27;46484;-59
2022/02/04 06:50:17;;;;;;;;;7.50;6.00;;;;;19.50;38.38;101037.38;5076118;27;45395;-58
2022/02/04 06:52:43;;;;;;;;;6.00;6.00;;;;;19.53;37.97;101036.38;5076167;27;45295;-58
2022/02/04 06:55:10;;;;;;;;;4.25;4.25;;;;;19.53;38.09;101034.59;5076531;27;45557;-57
2022/02/04 06:57:36;;;;;;;;;5.75;4.25;;;;;19.55;38.39;101040.63;5075976;27;45376;-58
2022/02/04 07:00:04;;;;;;;;;4.75;3.75;;;;;19.57;37.92;101040.53;5076287;27;45281;-57
2022/02/04 07:02:29;;;;;;;;;4.50;4.50;;;;;19.60;37.89;101045.66;5076454;27;45892;-59
2022/02/04 07:04:55;;;;;;;;;4.75;4.75;;;;;19.60;38.48;101043.03;5076223;27;45318;-58
2022/02/04 07:07:20;;;;;;;;;5.00;3.75;;;;;19.62;37.89;101044.66;5075753;27;45463;-58
2022/02/04 07:09:57;;;;;;;;;4.25;4.25;;;;;19.61;38.03;101036.84;5075837;27;45285;-59
2022/02/04 07:12:34;;;;;;;;;5.25;4.50;;;;;19.63;37.99;101041.09;5075941;28;45397;-58
2022/02/04 07:17:38;;;;;;;;;5.00;5.00;;;;;19.63;37.94;101046.34;5075675;27;45485;-58
2022/02/04 07:20:04;;;;;;;;;5.50;5.50;;;;;19.67;38.18;101046.22;5075863;27;45342;-57
2022/02/04 07:22:31;;;;;;;;;4.50;4.50;;;;;19.67;37.92;101046.22;5076995;27;45384;-58
2022/02/04 07:24:59;;;;;;;;;4.00;4.00;;;;;19.67;38.33;101041.84;5078107;27;45237;-57
2022/02/04 07:27:26;;;;;;;;;5.00;4.00;;;;;19.67;38.17;101036.56;5079079;27;45557;-58
2022/02/04 07:29:53;;;;;;;;;6.50;5.50;;;;;19.67;38.25;101035.72;5077856;27;45897;-58
2022/02/04 07:42:57;;;;;;;;;4.00;4.00;;;;;19.66;38.24;101037.50;5079155;28;45368;-57
2022/02/04 07:45:23;;;;;;;;;4.00;3.75;;;;;19.67;38.03;101031.31;5079261;27;45420;-57
2022/02/04 07:47:49;;;;;;;;;4.00;4.00;;;;;19.68;38.12;101029.53;5077413;27;46481;-58
2022/02/04 07:50:20;;;;;;;;;6.50;4.25;;;;;19.68;38.28;101030.34;5077578;27;45347;-58
2022/02/04 07:52:46;;;;;;;;;4.75;4.75;;;;;19.67;38.39;101026.06;5079086;27;45332;-58
2022/02/04 07:55:11;;;;;;;;;5.50;5.50;;;;;19.67;38.36;101023.44;5079058;27;45587;-57
2022/02/04 07:57:37;;;;;;;;;5.25;5.25;;;;;19.67;38.41;101022.56;5078991;27;45434;-59
2022/02/04 08:00:03;;;;;;;;;6.00;5.00;;;;;19.67;38.58;101018.16;5078613;28;45333;-58
2022/02/04 08:02:29;;;;;;;;;4.00;4.00;;;;;19.67;38.44;101020.78;5078958;27;45271;-58
2022/02/04 08:05:00;;;;;;;;;5.50;5.00;;;;;19.67;38.71;101015.53;5078892;27;45594;-58
2022/02/04 08:07:29;;;;;;;;;4.50;4.50;;;;;19.69;38.55;101023.34;5078571;27;46412;-57
2022/02/04 08:10:21;;;;;;;;;2.50;2.50;;;;;19.69;38.44;101025.97;5078446;27;45956;-58
2022/02/04 08:20:56;;;;;;;;;5.00;5.00;;;;;19.74;39.07;101027.44;5078250;27;45939;-58
2022/02/04 08:34:03;;;;;;;;;3.00;3.00;;;;;19.75;38.53;101021.25;5063864;28;45182;-57
2022/02/04 08:36:55;;;;;;;;;6.00;4.00;;;;;19.76;38.71;101020.34;5068702;28;45390;-56
2022/02/04 08:55:10;;;;;;;;;4.00;3.00;;;;;19.75;38.74;101023.91;5077624;27;45271;-58
2022/02/04 08:57:48;;;;;;;;;2.75;2.75;;;;;19.74;39.04;101027.44;5078040;27;45465;-57
2022/02/04 09:00:33;;;;;;;;;6.75;3.75;;;;;19.74;38.61;101024.81;5077299;27;46652;-57
2022/02/04 09:03:03;;;;;;;;;4.25;4.25;;;;;19.75;38.75;101029.16;5092992;27;45722;-57
2022/02/04 09:05:39;;;;;;;;;4.50;3.50;;;;;19.77;38.92;101023.81;5077238;27;45477;-57
2022/02/04 09:10:38;;;;;;;;;2.00;2.00;;;;;19.78;38.81;101021.13;5057315;28;45334;-56
2022/02/04 09:23:09;;;;;;;;;3.00;3.00;;;;;19.81;38.63;101011.34;5057292;28;45478;-55
2022/02/04 09:25:34;;;;;;;;;5.75;4.50;;;;;19.78;38.92;101013.22;5057154;28;45291;-56
2022/02/04 09:28:00;;;;;;;;;3.25;3.25;;;;;19.78;39.20;101000.09;5056005;28;45660;-55
2022/02/04 09:30:25;;;;;;;;;4.50;4.00;;;;;19.80;39.15;101002.63;5056674;28;45649;-56
2022/02/04 09:32:51;;;;;;;;;3.75;3.75;;;;;19.78;38.73;101007.09;5055669;28;45538;-55
2022/02/04 09:35:19;;;;;;;;;2.75;2.75;;;;;19.74;39.18;101001.16;5057124;28;45363;-55
2022/02/04 09:37:46;;;;;;;;;3.50;2.75;;;;;19.77;39.38;101000.13;5056995;28;45432;-56
2022/02/04 09:40:13;;;;;;;;;4.00;3.00;;;;;19.77;38.81;101005.41;5056779;28;47108;-53
2022/02/04 09:42:39;;;;;;;;;4.00;4.00;;;;;19.76;38.90;100999.31;5056920;28;45244;-54
2022/02/04 09:45:06;;;;;;;;;5.50;4.00;;;;;19.75;38.96;100999.34;5056405;28;45394;-54
2022/02/04 09:47:35;;;;;;;;;3.00;2.50;;;;;19.73;39.00;101004.69;5056911;28;45529;-55
2022/02/04 09:50:03;;;;;;;;;3.00;3.00;;;;;19.77;39.27;101008.03;5056490;28;47146;-54
2022/02/04 10:22:03;;;;;;;;;2.75;2.00;;;;;19.69;38.86;100976.84;5056226;28;45382;-53
2022/02/04 10:24:31;;;;;;;;;3.00;3.00;;;;;19.70;38.44;100981.19;5056159;28;45232;-54
2022/02/04 10:27:17;;;;;;;;;3.75;2.00;;;;;19.69;38.84;100979.47;5071870;28;45274;-56
2022/02/04 10:29:51;;;;;;;;;2.75;2.50;;;;;19.71;39.03;100979.41;5056685;28;45359;-55
2022/02/04 10:32:22;;;;;;;;;3.50;3.50;;;;;19.70;38.36;100978.56;5056139;28;46379;-53
2022/02/04 10:35:00;;;;;;;;;2.25;2.25;;;;;19.71;39.04;100968.91;5056048;28;45703;-52
2022/02/04 10:37:29;;;;;;;;;3.00;3.00;;;;;19.71;38.52;100972.38;5056004;28;45231;-55
2022/02/04 10:56:39;;;;;;;;;3.00;3.00;;;;;19.71;38.71;100964.47;5055892;28;45216;-51
2022/02/04 11:04:30;;;;;;;;;1.50;1.50;;;;;19.71;38.68;100953.13;5059230;28;45397;-54
2022/02/04 11:35:09;;;;;;;;;2.00;2.00;;;;;19.71;38.23;100937.34;5059458;28;45326;-55
2022/02/04 11:55:10;;;;;;;;;2.00;1.25;;;;;19.70;38.28;100890.94;5058425;28;45457;-52
2022/02/04 11:57:49;;;;;;;;;3.00;2.00;;;;;19.68;38.40;100877.84;5058706;28;45417;-54
2022/02/04 12:00:20;;;;;;;;;2.25;2.00;;;;;19.69;38.21;100876.91;5058616;28;46657;-55
2022/02/04 12:02:54;;;;;;;;;0.00;0.00;;;;;19.69;38.73;100876.91;5057254;28;45726;-54
2022/02/04 12:05:19;;;;;;;;;1.50;1.50;;;;;19.69;38.23;100855.03;5058368;28;45420;-53
2022/02/04 12:07:51;;;;;;;;;1.00;1.00;;;;;19.71;38.17;100869.81;5057100;28;45399;-54
2022/02/04 12:10:16;;;;;;;;;2.50;2.50;;;;;19.71;38.51;100854.03;5058953;28;45250;-56
2022/02/04 12:12:58;;;;;;;;;1.00;1.00;;;;;19.73;38.29;100859.22;5058067;28;45340;-53
2022/02/04 12:15:47;;;;;;;;;2.50;2.50;;;;;19.72;38.50;100854.91;5058276;28;45256;-54
2022/02/04 12:18:20;;;;;;;;;1.75;1.75;;;;;19.71;38.31;100838.25;5058190;28;45350;-54
2022/02/04 12:20:55;;;;;;;;;2.00;2.00;;;;;19.72;38.49;100842.59;5058376;28;45459;-54
2022/02/04 12:23:29;;;;;;;;;1.25;1.25;;;;;19.72;38.17;100842.59;5058160;28;45923;-53
2022/02/04 12:26:08;;;;;;;;;2.00;2.00;;;;;19.74;38.55;100832.84;5058213;28;45692;-54
2022/02/04 12:28:51;;;;;;;;;1.00;1.00;;;;;19.73;38.24;100823.25;5058222;28;45363;-54
2022/02/04 12:31:27;;;;;;;;;2.00;2.00;;;;;19.73;38.38;100812.72;5058125;28;46490;-53
2022/02/04 12:34:01;;;;;;;;;1.50;1.50;;;;;19.73;38.04;100815.38;5057848;28;45994;-53
2022/02/04 12:36:33;;;;;;;;;1.25;1.00;;;;;19.73;38.03;100810.09;5057993;28;45316;-54
2022/02/04 12:39:02;;;;;;;;;2.00;2.00;;;;;19.72;38.01;100803.16;5058171;28;45280;-53
2022/02/04 12:41:34;;;;;;;;;1.25;1.25;;;;;19.74;38.09;100801.28;5057590;28;47260;-53
2022/02/04 12:44:03;;;;;;;;;1.00;1.00;;;;;19.74;38.08;100796.03;5057824;28;45240;-55
2022/02/04 12:46:30;;;;;;;;;2.00;2.00;;;;;19.76;38.25;100790.69;5057675;28;45364;-55
2022/02/04 12:49:05;;;;;;;;;0.50;0.50;;;;;19.75;38.29;100781.94;5057939;28;45399;-52
2022/02/04 12:51:37;;;;;;;;;0.75;0.50;;;;;19.76;38.06;100778.41;5057289;28;45417;-55
2022/02/04 12:54:02;;;;;;;;;1.50;1.50;;;;;19.74;38.09;100761.84;5057387;28;45378;-53
2022/02/04 12:56:43;;;;;;;;;1.00;1.00;;;;;19.74;38.44;100761.84;5073253;28;45393;-52
2022/02/04 12:59:56;;;;;;;;;3.00;1.25;;;;;19.73;38.43;100762.78;5057660;28;45592;-52
2022/02/04 13:07:40;;;;;;;;;1.00;1.00;;;;;19.80;38.03;100757.16;5057478;28;45257;-51
2022/02/04 13:10:06;;;;;;;;;1.00;1.00;;;;;19.85;37.83;100770.94;5057667;28;45453;-53
2022/02/04 13:12:50;;;;;;;;;2.00;1.00;;;;;19.91;38.36;100762.75;5057097;28;46231;-54
2022/02/04 13:15:16;;;;;;;;;2.00;2.00;;;;;19.97;38.15;100759.78;5057232;28;45398;-54
2022/02/04 13:17:42;;;;;;;;;0.00;0.00;;;;;20.03;38.20;100756.81;5057303;28;45340;-54
2022/02/04 13:20:08;;;;;;;;;1.00;1.00;;;;;20.06;38.20;100746.13;5056659;28;45391;-53
2022/02/04 13:22:37;;;;;;;;;2.50;1.00;;;;;20.13;38.03;100746.66;5057114;28;47228;-52
2022/02/04 13:25:11;;;;;;;;;1.00;1.00;;;;;20.19;37.65;100745.47;5057111;27;45391;-52
2022/02/04 13:27:38;;;;;;;;;1.50;1.50;;;;;20.24;38.16;100752.16;5057214;28;45419;-52
2022/02/04 13:30:27;;;;;;;;;1.75;1.75;;;;;20.30;37.72;100752.75;5057167;28;45260;-54
2022/02/04 13:32:53;;;;;;;;;2.00;2.00;;;;;20.32;37.89;100764.91;5056994;28;46091;-55
2022/02/04 13:35:25;;;;;;;;;2.00;2.00;;;;;20.37;37.85;100765.47;5056793;28;45395;-56
2022/02/04 13:37:53;;;;;;;;;2.75;1.00;;;;;20.41;37.83;100760.88;5057368;28;45299;-52
2022/02/04 13:40:27;;;;;;;;;2.25;2.00;;;;;20.46;37.99;100765.91;5072591;28;45549;-55
2022/02/04 13:43:00;;;;;;;;;2.00;2.00;;;;;20.50;37.63;100772.69;5057043;28;46252;-53
2022/02/04 13:45:36;;;;;;;;;4.00;3.00;;;;;20.52;37.98;100766.41;5056591;28;45889;-55
2022/02/04 13:48:07;;;;;;;;;4.00;2.00;;;;;20.55;37.58;100773.31;5056953;28;45525;-55
2022/02/04 13:53:17;;;;;;;;;2.50;1.25;;;;;20.64;37.47;100764.88;5056441;28;46212;-55
2022/02/04 14:01:10;;;;;;;;;1.25;1.00;;;;;20.75;37.67;100773.97;5057009;28;45310;-56
2022/02/04 14:03:43;;;;;;;;;2.00;2.00;;;;;20.78;37.93;100774.66;5056488;28;47233;-55
2022/02/04 14:06:14;;;;;;;;;2.25;1.00;;;;;20.81;37.62;100776.25;5056306;28;45841;-56
2022/02/04 14:08:50;;;;;;;;;1.25;1.25;;;;;20.83;37.83;100775.25;5056450;28;45357;-55
2022/02/04 14:11:36;;;;;;;;;1.00;1.00;;;;;20.87;37.63;100769.78;5056906;28;45422;-55
2022/02/04 14:14:18;;;;;;;;;1.50;1.50;;;;;20.90;37.18;100780.16;5056357;28;46388;-54
2022/02/04 14:16:52;;;;;;;;;2.00;2.00;;;;;20.93;37.30;100787.88;5056301;28;45815;-56
2022/02/04 14:19:18;;;;;;;;;1.25;1.25;;;;;20.94;37.79;100787.78;5056591;28;45306;-56
2022/02/04 14:21:43;;;;;;;;;1.00;1.00;;;;;20.97;37.38;100784.09;5056495;28;45295;-55
2022/02/04 14:24:11;;;;;;;;;2.00;2.00;;;;;20.98;37.24;100789.31;5056274;28;46325;-55
2022/02/04 14:26:44;;;;;;;;;2.00;2.00;;;;;21.01;37.65;100793.53;5056182;28;45874;-57
2022/02/04 14:29:25;;;;;;;;;1.00;1.00;;;;;21.03;37.28;100790.81;5056149;28;45355;-52
2022/02/04 14:53:12;;;;;;;;;0.00;0.00;;;;;21.31;37.65;100851.53;5059855;28;45309;-55
2022/02/04 15:01:07;;;;;;;;;1.50;1.50;;;;;21.47;37.53;100892.81;5059403;28;45509;-52
2022/02/04 15:03:35;;;;;;;;;1.00;0.50;;;;;21.50;37.46;100890.00;5075180;28;45414;-55
2022/02/04 15:06:44;;;;;;;;;0.75;0.75;;;;;21.53;37.67;100913.56;5062423;28;47040;-54
2022/02/04 15:08:52;;;;;;;;;1.00;1.00;;;;;21.55;37.40;100930.13;5074767;27;45987;-52
2022/02/04 15:11:19;;;;;;;;;0.00;0.00;;;;;21.57;37.59;100928.25;5077613;28;45425;-54
2022/02/04 15:13:48;;;;;;;;;1.00;1.00;;;;;21.55;37.48;100938.03;5079333;27;45571;-54
2022/02/04 15:16:14;;;;;;;;;0.50;0.50;;;;;21.59;37.83;100930.84;5078974;28;45567;-58
2022/02/04 15:18:41;;;;;;;;;1.00;1.00;;;;;21.60;37.78;100943.94;5078760;27;45239;-57
2022/02/04 15:21:13;;;;;;;;;1.00;1.00;;;;;21.62;37.98;100947.34;5079431;27;45338;-59
2022/02/04 15:23:40;;;;;;;;;0.75;0.75;;;;;21.63;37.68;100964.00;5079489;28;45247;-56
2022/02/04 15:26:07;;;;;;;;;1.00;1.00;;;;;21.64;37.55;100964.88;5079247;28;46521;-57
2022/02/04 15:31:16;;;;;;;;;0.00;0.00;;;;;21.67;37.80;100969.94;5079111;27;45480;-57
2022/02/04 15:33:44;;;;;;;;;0.75;0.75;;;;;21.67;37.87;100981.34;5078020;27;45469;-54
2022/02/04 15:36:10;;;;;;;;;0.00;0.00;;;;;21.65;37.80;100993.78;5078866;27;45448;-53
2022/02/04 15:38:35;;;;;;;;;0.00;0.00;;;;;21.68;37.73;101008.56;5077346;28;45383;-57
2022/02/04 15:41:01;;;;;;;;;2.00;0.00;;;;;21.68;37.20;101013.84;5079332;27;45307;-56
2022/02/04 15:43:30;;;;;;;;;0.75;0.75;;;;;21.69;37.29;101013.78;5078716;27;45444;-54
2022/02/04 16:01:58;;;;;;;;;0.50;0.50;;;;;21.75;37.72;101046.88;5078731;27;45238;-57
2022/02/04 16:04:31;;;;;;;;;1.50;0.75;;;;;21.77;37.84;101058.19;5079030;27;45389;-57
2022/02/04 16:06:57;;;;;;;;;0.00;0.00;;;;;21.82;37.28;101063.19;5078533;27;47325;-57
2022/02/04 16:09:24;;;;;;;;;0.00;0.00;;;;;21.86;37.85;101068.22;5078346;27;45333;-57
2022/02/04 16:12:08;;;;;;;;;1.25;0.50;;;;;21.88;37.74;101074.22;5078263;27;45417;-57
2022/02/04 16:14:49;;;;;;;;;1.00;1.00;;;;;21.93;37.57;101074.81;5077556;28;45481;-58
2022/02/04 16:17:26;;;;;;;;;1.00;1.00;;;;;21.96;37.60;101079.06;5077734;27;46493;-59
2022/02/04 16:20:51;;;;;;;;;1.00;0.00;;;;;22.00;37.45;101080.59;5078301;27;45670;-56
2022/02/04 16:25:17;;;;;;;;;0.00;0.00;;;;;22.08;37.52;101090.72;5078516;27;45307;-56
2022/02/04 16:30:11;;;;;;;;;0.00;0.00;;;;;22.08;36.47;101103.91;5077997;27;45347;-56
2022/02/04 16:32:36;;;;;;;;;0.00;0.00;;;;;22.09;36.64;101108.25;5072573;28;45450;-56
2022/02/04 16:35:04;;;;;;;;;0.00;0.00;;;;;22.09;36.75;101105.63;5061352;28;45548;-55
2022/02/04 16:37:34;;;;;;;;;0.00;0.00;;;;;22.12;36.67;101118.63;5057388;28;47192;-53
2022/02/04 16:40:04;;;;;;;;;0.00;0.00;;;;;22.12;36.60;101123.91;5058068;28;45779;-54
2022/02/04 16:42:31;;;;;;;;;0.00;0.00;;;;;22.13;36.56;101130.88;5058372;28;45380;-52
2022/02/04 16:44:57;;;;;;;;;0.00;0.00;;;;;22.15;36.70;101128.19;5056735;28;45540;-51
2022/02/04 16:47:22;;;;;;;;;0.00;0.00;;;;;22.16;36.42;101140.44;5057745;28;45363;-51
2022/02/04 16:49:48;;;;;;;;;3.00;1.00;;;;;22.16;36.83;101146.56;5057662;28;45329;-47
2022/02/04 16:52:15;;;;;;;;;0.50;0.25;;;;;22.15;36.51;101155.41;5073346;28;45315;-47
2022/02/04 16:54:41;;;;;;;;;0.00;0.00;;;;;22.13;36.43;101149.38;5072183;28;45366;-48
2022/02/04 16:57:07;;;;;;;;;0.00;0.00;;;;;22.13;36.26;101161.72;5057534;28;46605;-51
2022/02/04 16:59:33;;;;;;;;;0.00;0.00;;;;;22.11;36.68;101168.88;5057969;28;45342;-51
2022/02/04 17:01:59;;;;;;;;;1.00;1.00;;;;;22.10;36.67;101175.97;5057990;28;45414;-49
2022/02/04 17:04:24;;;;;;;;;1.00;1.00;;;;;22.09;36.31;101182.19;5057652;28;45529;-49
2022/02/04 17:07:01;;;;;;;;;0.00;0.00;;;;;22.09;36.46;101195.38;5056503;28;46588;-48
2022/02/04 17:09:31;;;;;;;;;0.75;0.75;;;;;22.08;36.39;101194.50;5057447;28;45539;-50
2022/02/04 17:12:40;;;;;;;;;0.00;0.00;;;;;22.08;36.24;101201.59;5057138;28;45261;-50
2022/02/04 17:14:48;;;;;;;;;1.50;1.50;;;;;22.06;36.58;101203.47;5055361;28;45412;-50
2022/02/04 17:17:13;;;;;;;;;1.00;1.00;;;;;22.04;36.08;101210.59;5057366;28;45501;-49
2022/02/04 17:19:48;;;;;;;;;2.00;1.00;;;;;22.04;35.89;101222.03;5057161;28;45321;-50
2022/02/04 17:22:14;;;;;;;;;1.75;1.25;;;;;22.04;35.70;101226.44;5057314;28;45319;-51
2022/02/04 17:24:40;;;;;;;;;1.75;1.00;;;;;22.01;35.42;101224.84;5057482;28;45391;-53
2022/02/04 17:27:06;;;;;;;;;0.00;0.00;;;;;22.00;35.26;101232.81;5057013;28;46517;-48
2022/02/04 17:29:32;;;;;;;;;0.25;0.25;;;;;21.99;35.27;101249.63;5057304;28;45406;-52
2022/02/04 17:31:58;;;;;;;;;1.00;1.00;;;;;21.90;33.58;101251.78;5063015;28;45822;-53
2022/02/04 17:34:24;;;;;;;;;1.25;1.25;;;;;21.71;33.24;101251.09;5059311;27;45350;-51
2022/02/04 17:36:49;;;;;;;;;1.75;1.50;;;;;21.52;33.31;101254.69;5067008;27;45469;-52
2022/02/04 17:39:18;;;;;;;;;3.00;1.00;;;;;21.35;33.50;101258.22;5067134;28;45452;-51
2022/02/04 17:41:46;;;;;;;;;0.00;0.00;;;;;21.21;33.54;101269.50;5065256;28;45405;-52
2022/02/04 17:44:16;;;;;;;;;1.25;1.00;;;;;21.12;33.38;101276.06;5067595;27;45480;-50
2022/02/04 17:46:43;;;;;;;;;1.00;1.00;;;;;21.01;33.25;101275.75;5072978;27;46045;-51
2022/02/04 17:49:22;;;;;;;;;2.00;2.00;;;;;20.93;33.41;101280.56;5081099;27;45823;-53
2022/02/04 17:51:53;;;;;;;;;2.00;1.00;;;;;20.86;33.23;101290.56;5066755;28;45470;-53
2022/02/04 17:54:29;;;;;;;;;1.00;1.00;;;;;20.75;33.12;101290.25;5064155;28;45323;-53
2022/02/04 18:01:59;;;;;;;;;1.50;1.50;;;;;20.46;32.93;101302.97;5076383;27;45425;-54
2022/02/04 18:09:38;;;;;;;;;2.25;2.00;;;;;20.18;33.25;101333.25;5076231;27;45413;-56
2022/02/04 18:12:05;;;;;;;;;2.25;2.00;;;;;20.12;33.07;101330.91;5076421;27;45420;-55
2022/02/04 18:14:30;;;;;;;;;3.25;2.00;;;;;20.07;32.94;101339.00;5076424;27;45334;-53
2022/02/04 18:16:56;;;;;;;;;2.25;2.25;;;;;20.03;33.06;101340.91;5076038;27;45458;-55
2022/02/04 18:19:21;;;;;;;;;3.00;2.00;;;;;19.98;32.57;101349.94;5076242;27;45299;-56
2022/02/04 18:21:47;;;;;;;;;1.00;1.00;;;;;19.92;32.45;101348.44;5076008;28;45336;-55
2022/02/04 18:24:12;;;;;;;;;1.25;1.25;;;;;19.86;33.07;101359.25;5076157;27;45485;-56
2022/02/04 18:26:37;;;;;;;;;4.00;2.75;;;;;19.81;32.61;101358.53;5075988;27;45513;-53